Time;durP1;ratioP1;P1;durP2;ratioP2;P2;SDS_P1;SDS_P2;PMS_P1;PMS_P2;Temp;Humidity;BMP_temperature;BMP_pressure;BME280_temperature;BME280_humidity;BME280_pressure;Samples;Min_cycle;Max_cycle;Signal;HPM_P1;HPM_P2
2023/02/11 00:01:45;;;;;;;10.90;9.80;;;;;;;20.09;41.55;99345.06;4908351;28;20212;-90
2023/02/11 00:04:11;;;;;;;11.33;9.83;;;;;;;20.04;41.25;99329.47;4913288;29;20238;-91
2023/02/11 00:06:38;;;;;;;10.60;9.50;;;;;;;20.07;41.49;99329.66;4923302;28;20296;-90
2023/02/11 00:09:04;;;;;;;10.60;9.50;;;;;;;20.06;41.42;99329.56;4940996;29;20297;-90
2023/02/11 00:11:31;;;;;;;10.67;9.57;;;;;;;19.86;41.51;99300.22;4951723;28;20208;-90
2023/02/11 00:14:00;;;;;;;11.57;10.37;;;;;;;19.76;41.40;99283.47;4944128;28;20215;-90
2023/02/11 00:16:26;;;;;;;11.03;9.87;;;;;;;20.32;41.34;99378.09;4939023;29;20721;-90
2023/02/11 00:18:53;;;;;;;10.60;9.50;;;;;;;19.79;41.29;99304.06;4942493;28;20208;-89
2023/02/11 00:21:22;;;;;;;11.13;9.90;;;;;;;20.15;41.43;99353.16;4955802;28;20216;-89
2023/02/11 00:23:48;;;;;;;11.07;9.87;;;;;;;20.41;41.38;99401.66;4942885;28;20200;-90
2023/02/11 00:26:28;;;;;;;10.30;9.30;;;;;;;20.33;41.33;99384.94;4941564;29;20260;-90
2023/02/11 00:28:55;;;;;;;10.93;9.80;;;;;;;20.24;41.02;99380.16;4909800;28;20259;-90
2023/02/11 00:31:22;;;;;;;10.40;9.30;;;;;;;19.72;41.54;99281.47;4923060;29;20224;-90
2023/02/11 00:33:49;;;;;;;11.43;10.33;;;;;;;20.23;41.29;99372.41;4925672;28;20251;-90
2023/02/11 00:36:18;;;;;;;11.57;10.43;;;;;;;19.99;41.31;99335.97;4950117;28;20228;-90
2023/02/11 00:38:45;;;;;;;10.87;9.60;;;;;;;19.72;41.42;99285.72;4910758;28;20513;-90
2023/02/11 00:41:12;;;;;;;11.60;10.03;;;;;;;20.32;41.47;99393.41;4932876;29;20219;-90
2023/02/11 00:43:39;;;;;;;10.83;9.73;;;;;;;20.22;41.38;99376.63;4909810;28;20268;-89
2023/02/11 00:46:06;;;;;;;10.87;9.77;;;;;;;19.85;41.54;99303.56;4908388;29;20225;-91
2023/02/11 00:48:32;;;;;;;11.60;10.47;;;;;;;20.04;41.54;99331.16;4942475;29;20207;-90
2023/02/11 00:50:59;;;;;;;11.13;9.93;;;;;;;19.90;41.45;99307.31;4923595;28;20260;-90
2023/02/11 00:53:26;;;;;;;11.20;10.00;;;;;;;20.02;41.25;99328.50;4942346;29;20224;-90
2023/02/11 00:55:52;;;;;;;10.60;9.60;;;;;;;20.07;41.59;99334.75;4939208;28;20239;-90
2023/02/11 00:58:19;;;;;;;11.27;9.77;;;;;;;19.59;41.21;99260.19;4938383;29;20205;-90
2023/02/11 01:00:45;;;;;;;11.10;10.00;;;;;;;20.37;41.53;99389.50;4920805;28;20236;-90
2023/02/11 01:03:12;;;;;;;10.53;9.03;;;;;;;19.78;41.40;99289.53;4922989;29;20208;-90
2023/02/11 01:05:38;;;;;;;12.07;10.67;;;;;;;20.09;41.39;99345.06;4920878;28;20651;-89
2023/02/11 01:08:05;;;;;;;11.07;9.97;;;;;;;19.95;41.43;99313.56;4954794;28;20220;-90
2023/02/11 01:10:32;;;;;;;10.80;9.70;;;;;;;19.94;41.34;99311.81;4945678;28;20240;-90
2023/02/11 01:13:00;;;;;;;10.83;9.53;;;;;;;20.09;41.58;99335.75;4923659;28;20288;-90
2023/02/11 01:15:27;;;;;;;10.83;9.73;;;;;;;19.93;41.36;99312.59;4934572;29;20275;-90
2023/02/11 01:17:53;;;;;;;10.40;9.40;;;;;;;19.93;41.25;99308.38;4926859;28;20705;-90
2023/02/11 01:20:21;;;;;;;11.03;9.93;;;;;;;20.04;41.31;99323.50;4911327;29;20235;-90
2023/02/11 01:22:48;;;;;;;10.90;9.80;;;;;;;19.79;41.10;99262.34;4940532;28;20291;-89
2023/02/11 01:25:15;;;;;;;10.97;9.87;;;;;;;19.95;41.21;99291.50;4919981;29;20217;-90
2023/02/11 01:27:41;;;;;;;10.70;9.60;;;;;;;20.04;41.15;99296.28;4936366;28;20232;-90
2023/02/11 01:30:09;;;;;;;11.13;9.93;;;;;;;19.98;41.11;99282.28;4936582;29;20216;-90
2023/02/11 01:32:35;;;;;;;10.90;9.90;;;;;;;20.32;41.03;99348.34;4911176;29;20749;-90
2023/02/11 01:35:02;;;;;;;10.57;9.57;;;;;;;20.24;41.17;99335.84;4937469;28;20307;-90
2023/02/11 01:37:28;;;;;;;11.00;9.80;;;;;;;20.01;41.11;99285.03;4952951;28;20228;-90
2023/02/11 01:39:55;;;;;;;11.20;9.83;;;;;;;19.91;40.81;99261.47;4936083;28;20216;-91
2023/02/11 01:42:22;;;;;;;11.43;10.27;;;;;;;20.10;41.05;99291.56;4946390;28;20299;-90
2023/02/11 01:44:50;;;;;;;11.13;10.03;;;;;;;20.19;41.06;99304.06;4909879;28;20204;-89
2023/02/11 01:47:17;;;;;;;10.97;9.87;;;;;;;19.73;41.12;99213.50;4923447;29;20331;-90
2023/02/11 01:50:04;;;;;;;11.10;10.00;;;;;;;18.86;41.13;99065.94;4925538;28;20235;-90
2023/02/11 01:52:33;;;;;;;11.10;10.00;;;;;;;20.05;41.10;99279.31;4914731;29;20244;-90
2023/02/11 01:57:50;;;;;;;11.10;9.90;;;;;;;20.12;40.99;99287.44;4931104;28;20228;-90
2023/02/11 02:00:22;;;;;;;11.40;10.10;;;;;;;19.83;40.90;99229.47;4934357;29;20272;-90
2023/02/11 02:03:09;;;;;;;11.70;10.50;;;;;;;19.80;41.16;99220.75;4933255;28;20295;-90
2023/02/11 02:05:49;;;;;;;11.90;10.70;;;;;;;19.84;41.04;99215.06;4942339;28;20290;-89
2023/02/11 02:08:28;;;;;;;10.87;9.70;;;;;;;20.35;40.92;99305.13;4919399;29;20213;-91
2023/02/11 02:10:55;;;;;;;10.70;9.60;;;;;;;20.15;41.01;99262.16;4958339;28;20638;-90
2023/02/11 02:13:22;;;;;;;10.90;9.33;;;;;;;20.27;40.93;99268.00;4926747;29;20657;-90
2023/02/11 02:15:52;;;;;;;10.77;9.67;;;;;;;19.82;40.53;99186.00;4929168;28;20291;-90
2023/02/11 02:18:57;;;;;;;10.23;9.23;;;;;;;20.36;40.97;99283.00;4961632;28;20212;-90
2023/02/11 02:21:54;;;;;;;11.17;10.07;;;;;;;20.36;40.93;99286.44;4955470;28;20199;-90
2023/02/11 02:24:30;;;;;;;9.77;8.77;;;;;;;20.38;40.84;99284.00;4941641;29;20205;-90
2023/02/11 02:27:15;;;;;;;11.70;10.50;;;;;;;20.37;40.91;99275.44;4959391;28;20220;-90
2023/02/11 02:30:06;;;;;;;11.40;10.20;;;;;;;20.38;40.98;99276.31;4940290;29;20229;-90
2023/02/11 02:33:01;;;;;;;10.80;9.77;;;;;;;19.70;41.01;99155.53;4955030;28;20216;-90
2023/02/11 02:35:47;;;;;;;11.23;10.13;;;;;;;19.78;40.82;99174.72;4926494;28;20308;-90
2023/02/11 02:38:47;;;;;;;11.37;10.17;;;;;;;20.38;40.71;99273.78;4909643;29;20259;-90
2023/02/11 02:41:22;;;;;;;12.13;10.13;;;;;;;20.15;41.03;99246.81;4923175;28;20239;-90
2023/02/11 02:43:49;;;;;;;11.20;10.00;;;;;;;19.86;40.94;99198.16;4949621;28;20225;-91
2023/02/11 02:46:26;;;;;;;11.40;10.07;;;;;;;19.63;40.79;99145.72;4926545;29;20233;-90
2023/02/11 02:48:53;;;;;;;11.47;10.27;;;;;;;19.88;40.94;99192.38;4930949;28;20204;-90
2023/02/11 02:51:42;;;;;;;11.17;10.03;;;;;;;20.15;40.95;99234.06;4921342;29;20212;-90
2023/02/11 02:54:23;;;;;;;10.67;9.57;;;;;;;20.36;40.71;99270.22;4943107;28;20221;-90
2023/02/11 02:57:18;;;;;;;10.50;9.50;;;;;;;20.36;40.83;99272.78;4928288;28;20318;-90
2023/02/11 03:00:12;;;;;;;10.63;9.30;;;;;;;20.36;40.89;99283.00;4958296;28;20216;-90
2023/02/11 03:02:41;;;;;;;10.87;9.77;;;;;;;19.53;40.68;99139.94;4944849;29;20235;-90
2023/02/11 03:05:17;;;;;;;10.50;9.40;;;;;;;20.36;40.77;99288.09;4945103;28;20212;-90
2023/02/11 03:07:55;;;;;;;11.30;10.10;;;;;;;19.57;40.63;99159.78;4944770;29;20227;-89
2023/02/11 03:10:27;;;;;;;10.97;9.87;;;;;;;20.17;40.70;99265.69;4920643;29;20297;-90
2023/02/11 03:12:54;;;;;;;11.07;10.03;;;;;;;19.62;40.52;99173.66;4958425;28;20248;-91
2023/02/11 03:15:21;;;;;;;11.03;9.93;;;;;;;20.00;40.52;99238.19;4943358;29;20219;-90
2023/02/11 03:17:48;;;;;;;9.87;8.87;;;;;;;20.04;40.67;99255.44;4902094;28;20283;-90
2023/02/11 03:20:16;;;;;;;10.87;9.77;;;;;;;19.60;40.71;99168.47;4941945;29;20216;-90
2023/02/11 03:22:49;;;;;;;10.00;9.00;;;;;;;20.13;40.57;99263.72;4900827;28;20243;-90
2023/02/11 03:25:16;;;;;;;11.13;10.03;;;;;;;20.28;40.80;99290.19;4910118;29;20244;-90
2023/02/11 03:27:46;;;;;;;10.50;9.43;;;;;;;20.16;40.57;99261.34;4913068;29;20223;-90
2023/02/11 03:30:37;;;;;;;11.13;10.03;;;;;;;19.71;40.61;99181.91;4924943;29;20209;-90
2023/02/11 03:33:20;;;;;;;10.50;9.47;;;;;;;20.03;40.71;99235.81;4938261;28;20254;-90
2023/02/11 03:35:53;;;;;;;10.80;9.80;;;;;;;20.39;40.52;99293.41;4954914;28;20217;-91
2023/02/11 03:38:22;;;;;;;11.40;9.63;;;;;;;20.06;40.44;99235.13;4937674;29;20205;-89
2023/02/11 03:40:49;;;;;;;10.63;9.53;;;;;;;19.69;40.55;99170.75;4912263;28;20235;-89
2023/02/11 03:43:17;;;;;;;10.47;9.40;;;;;;;19.54;40.63;99159.59;4952190;28;20273;-91
2023/02/11 03:45:45;;;;;;;10.30;9.00;;;;;;;19.87;40.63;99210.16;4953123;28;20256;-91
2023/02/11 03:48:15;;;;;;;10.07;9.10;;;;;;;19.93;40.40;99216.50;4919920;28;20586;-90
2023/02/11 03:50:41;;;;;;;10.40;9.43;;;;;;;20.20;40.88;99267.53;4941238;29;20208;-90
2023/02/11 03:53:08;;;;;;;10.90;9.80;;;;;;;20.05;40.81;99238.47;4927503;28;20251;-90
2023/02/11 03:55:36;;;;;;;10.77;9.67;;;;;;;20.38;40.53;99291.66;4937713;29;20247;-91
2023/02/11 03:58:03;;;;;;;10.70;9.67;;;;;;;19.94;40.46;99222.50;4943539;28;20204;-90
2023/02/11 04:00:35;;;;;;;10.47;9.37;;;;;;;19.60;40.25;99157.41;4936855;29;20730;-90
2023/02/11 04:03:03;;;;;;;10.70;9.60;;;;;;;20.35;40.36;99284.69;4949261;28;20232;-90
2023/02/11 04:05:29;;;;;;;11.17;10.07;;;;;;;20.11;40.62;99242.31;4922937;29;20216;-90
2023/02/11 04:07:56;;;;;;;9.53;8.63;;;;;;;19.96;40.36;99218.38;4932376;28;20228;-90
2023/02/11 04:10:23;;;;;;;11.63;10.40;;;;;;;19.96;40.58;99232.00;4921553;29;20241;-90
2023/02/11 04:12:49;;;;;;;11.13;9.67;;;;;;;19.50;40.49;99145.75;4942771;28;20216;-90
2023/02/11 04:15:16;;;;;;;11.00;9.90;;;;;;;20.01;40.25;99239.09;4940160;29;20213;-90
2023/02/11 04:17:43;;;;;;;10.70;9.60;;;;;;;19.91;40.62;99217.19;4912235;29;20228;-89
2023/02/11 04:20:10;;;;;;;9.80;8.80;;;;;;;19.71;40.36;99179.34;4935183;28;20220;-90
2023/02/11 04:22:36;;;;;;;10.03;9.13;;;;;;;20.08;40.26;99248.88;4923957;29;20219;-90
2023/02/11 04:25:04;;;;;;;10.63;9.53;;;;;;;20.08;40.43;99237.00;4942162;28;20218;-90
2023/02/11 04:27:30;;;;;;;10.00;9.00;;;;;;;20.21;40.35;99272.72;4900578;29;20263;-90
2023/02/11 04:29:57;;;;;;;10.07;9.07;;;;;;;19.99;40.30;99229.63;4949913;28;20208;-90
2023/02/11 04:32:23;;;;;;;11.90;10.70;;;;;;;20.09;40.18;99259.19;4939842;29;20729;-90
2023/02/11 04:34:50;;;;;;;10.43;9.43;;;;;;;19.98;40.47;99231.22;4911646;28;20232;-91
2023/02/11 04:37:17;;;;;;;9.97;8.97;;;;;;;20.15;40.23;99268.91;4904794;29;20228;-90
2023/02/11 04:39:43;;;;;;;10.03;9.07;;;;;;;20.23;40.43;99271.16;4907085;29;20219;-90
2023/02/11 04:42:11;;;;;;;10.73;9.70;;;;;;;19.74;40.63;99174.44;4941487;28;20247;-90
2023/02/11 04:44:37;;;;;;;9.93;8.93;;;;;;;20.25;40.23;99261.91;4947308;28;20224;-90
2023/02/11 04:47:04;;;;;;;10.60;9.60;;;;;;;20.18;40.25;99261.44;4909666;28;20234;-89
2023/02/11 04:49:30;;;;;;;10.40;9.40;;;;;;;19.95;40.16;99217.47;4905233;29;20295;-90
2023/02/11 04:51:57;;;;;;;10.60;9.50;;;;;;;19.93;40.31;99208.84;4940099;28;20279;-90
2023/02/11 04:54:23;;;;;;;10.10;9.10;;;;;;;19.69;40.30;99152.88;4938673;29;20228;-90
2023/02/11 04:56:50;;;;;;;11.17;9.90;;;;;;;20.21;40.32;99244.66;4935674;29;20710;-90
2023/02/11 04:59:16;;;;;;;10.07;9.07;;;;;;;19.98;40.13;99207.47;4938767;28;20276;-90
2023/02/11 05:01:43;;;;;;;10.23;9.23;;;;;;;20.32;40.20;99260.63;4926195;29;20291;-89
2023/02/11 05:04:10;;;;;;;10.90;9.80;;;;;;;20.30;40.36;99252.88;4942154;29;20300;-90
2023/02/11 05:06:38;;;;;;;10.70;9.60;;;;;;;20.28;40.43;99253.56;4942605;29;20224;-90
2023/02/11 05:09:04;;;;;;;10.10;9.10;;;;;;;20.33;40.43;99252.16;4949112;28;20208;-90
2023/02/11 05:11:31;;;;;;;9.80;8.80;;;;;;;19.74;40.60;99152.38;4938335;29;20576;-90
2023/02/11 05:13:58;;;;;;;10.50;9.40;;;;;;;20.22;40.25;99232.78;4926462;28;20252;-89
2023/02/11 05:16:24;;;;;;;10.73;9.63;;;;;;;19.77;40.19;99150.00;4931721;29;20228;-90
2023/02/11 05:18:52;;;;;;;9.93;8.93;;;;;;;19.62;40.49;99112.47;4947135;28;20211;-90
2023/02/11 05:21:19;;;;;;;10.30;9.30;;;;;;;20.21;40.39;99239.53;4924419;29;20204;-90
2023/02/11 05:23:45;;;;;;;9.43;8.53;;;;;;;20.12;40.32;99215.06;4919965;29;20204;-90
2023/02/11 05:26:12;;;;;;;10.03;9.03;;;;;;;20.05;40.18;99192.53;4907642;28;20787;-90
2023/02/11 05:28:40;;;;;;;9.70;8.70;;;;;;;20.14;40.25;99203.34;4926785;29;20212;-90
2023/02/11 05:31:07;;;;;;;9.77;8.77;;;;;;;20.06;40.19;99195.19;4923740;28;20291;-90
2023/02/11 05:33:33;;;;;;;11.87;9.40;;;;;;;20.31;40.43;99236.75;4932696;29;20655;-90
2023/02/11 05:36:02;;;;;;;9.30;8.40;;;;;;;20.15;40.17;99220.41;4910987;28;20228;-90
2023/02/11 05:38:28;;;;;;;10.90;9.80;;;;;;;19.87;40.40;99182.09;4931110;29;20269;-90
2023/02/11 05:40:57;;;;;;;10.33;9.23;;;;;;;19.61;40.53;99136.22;4933667;28;20669;-90
2023/02/11 05:43:24;;;;;;;9.77;8.87;;;;;;;19.83;40.42;99168.25;4917205;29;20248;-90
2023/02/11 05:45:51;;;;;;;9.97;8.97;;;;;;;20.10;40.07;99214.13;4923722;28;20208;-90
2023/02/11 05:48:18;;;;;;;9.87;8.87;;;;;;;20.18;40.15;99213.81;4927634;28;20209;-90
2023/02/11 05:50:44;;;;;;;10.23;9.23;;;;;;;19.84;40.11;99147.03;4920036;29;20238;-90
2023/02/11 05:53:11;;;;;;;11.70;9.53;;;;;;;20.21;40.15;99211.47;4922205;28;20208;-89
2023/02/11 05:55:38;;;;;;;10.10;9.00;;;;;;;19.99;40.18;99191.34;4933030;28;20271;-90
2023/02/11 05:58:05;;;;;;;11.33;9.63;;;;;;;20.08;40.21;99193.63;4909770;28;20255;-89
2023/02/11 06:00:32;;;;;;;10.80;9.70;;;;;;;20.38;39.95;99230.34;4907789;29;20208;-90
2023/02/11 06:02:58;;;;;;;11.53;10.17;;;;;;;19.74;40.10;99133.63;4903253;29;20208;-90
2023/02/11 06:05:25;;;;;;;11.60;10.03;;;;;;;20.07;39.99;99188.41;4908864;29;20658;-90
2023/02/11 06:07:52;;;;;;;11.03;9.80;;;;;;;20.22;40.08;99232.78;4907956;29;20310;-90
2023/02/11 06:10:18;;;;;;;11.50;10.30;;;;;;;20.05;40.33;99208.75;4923419;28;20315;-90
2023/02/11 06:12:45;;;;;;;11.87;9.73;;;;;;;19.97;40.27;99184.41;4913329;29;20761;-91
2023/02/11 06:15:12;;;;;;;10.10;9.10;;;;;;;19.83;40.45;99157.16;4908739;28;20278;-93
2023/02/11 06:17:38;;;;;;;11.63;9.17;;;;;;;19.91;40.56;99184.91;4929054;29;20319;-89
2023/02/11 06:20:06;;;;;;;11.00;9.60;;;;;;;19.71;40.54;99141.97;4901875;29;20223;-90
2023/02/11 06:22:32;;;;;;;11.53;9.00;;;;;;;20.11;40.93;99226.97;4914550;29;20216;-91
2023/02/11 06:25:03;;;;;;;11.57;8.30;;;;;;;20.34;41.04;99256.50;4904311;29;20261;-91
2023/02/11 06:27:30;;;;;;;9.20;8.30;;;;;;;19.66;41.02;99125.50;4935496;29;20235;-91
2023/02/11 06:29:57;;;;;;;11.67;8.40;;;;;;;20.34;41.21;99238.63;4904909;28;20212;-92
2023/02/11 06:32:23;;;;;;;10.07;8.70;;;;;;;20.32;40.91;99222.31;4937319;29;20223;-90
2023/02/11 06:35:09;;;;;;;11.33;9.00;;;;;;;20.12;40.78;99175.13;4916632;28;20350;-89
2023/02/11 06:37:38;;;;;;;9.50;8.40;;;;;;;20.27;40.89;99191.41;4920076;29;20260;-91
2023/02/11 06:40:05;;;;;;;10.50;8.47;;;;;;;20.09;41.02;99169.84;4902694;28;20205;-91
2023/02/11 06:42:37;;;;;;;8.93;7.90;;;;;;;19.95;41.12;99168.09;4939691;29;20208;-90
2023/02/11 06:45:04;;;;;;;9.90;8.20;;;;;;;20.20;41.04;99213.91;4916996;28;20204;-90
2023/02/11 06:47:31;;;;;;;11.63;8.43;;;;;;;19.95;41.15;99173.22;4948086;29;20228;-91
2023/02/11 06:49:58;;;;;;;12.07;8.23;;;;;;;19.85;41.21;99158.13;4931446;29;20205;-92
2023/02/11 06:52:24;;;;;;;9.87;7.60;;;;;;;19.73;41.34;99124.22;4937548;29;20208;-91
2023/02/11 06:54:51;;;;;;;7.93;7.07;;;;;;;20.00;41.58;99179.50;4914755;29;20224;-91
2023/02/11 06:57:17;;;;;;;13.53;7.33;;;;;;;19.95;41.73;99157.91;4912726;28;20248;-92
2023/02/11 06:59:44;;;;;;;13.47;7.93;;;;;;;19.43;41.67;99078.97;4955843;28;20214;-90
2023/02/11 07:02:11;;;;;;;14.27;8.70;;;;;;;20.04;41.53;99178.03;4950012;28;20200;-90
2023/02/11 07:04:37;;;;;;;24.33;14.80;;;;;;;19.96;40.71;99160.53;4947648;29;20200;-92
2023/02/11 07:07:04;;;;;;;26.23;16.30;;;;;;;20.22;39.45;99207.25;4933177;28;20287;-91
2023/02/11 07:09:30;;;;;;;22.47;18.60;;;;;;;19.89;38.58;99144.75;4956899;29;20666;-91
2023/02/11 07:12:00;;;;;;;25.67;21.37;;;;;;;19.43;37.40;99089.16;4981243;28;20216;-94
2023/02/11 07:15:00;;;;;;;29.03;25.23;;;;;;;18.10;35.97;98878.53;5447424;23;20227;-91
2023/02/11 07:17:29;;;;;;;31.47;24.27;;;;;;;19.40;35.24;99083.88;4953606;28;20600;-88
2023/02/11 07:19:56;;;;;;;27.23;23.10;;;;;;;19.76;35.63;99145.72;4941327;29;20217;-89
2023/02/11 07:22:22;;;;;;;25.47;22.43;;;;;;;20.04;36.18;99195.88;4936139;28;20233;-88
2023/02/11 07:24:49;;;;;;;23.87;21.13;;;;;;;19.52;35.92;99121.22;4935631;29;20197;-89
2023/02/11 07:27:16;;;;;;;24.60;22.00;;;;;;;20.22;35.75;99243.84;4915969;29;20305;-88
2023/02/11 07:29:44;;;;;;;23.70;21.03;;;;;;;19.55;36.23;99125.63;4930399;29;20224;-88
2023/02/11 07:32:11;;;;;;;22.90;20.40;;;;;;;19.78;36.42;99151.75;4955004;28;20200;-88
2023/02/11 07:34:38;;;;;;;25.03;20.97;;;;;;;20.26;36.91;99229.63;4932409;29;20751;-89
2023/02/11 07:37:05;;;;;;;22.90;19.83;;;;;;;19.72;37.58;99127.56;4954615;28;20752;-88
2023/02/11 07:39:31;;;;;;;23.43;19.53;;;;;;;19.87;37.95;99166.78;4915118;29;20209;-88
2023/02/11 07:41:58;;;;;;;23.07;19.27;;;;;;;20.14;38.25;99208.44;4949458;28;20243;-88
2023/02/11 07:44:25;;;;;;;21.33;19.03;;;;;;;20.28;38.37;99221.25;4939811;28;20201;-88
2023/02/11 07:46:52;;;;;;;20.37;18.13;;;;;;;19.91;38.77;99181.47;4950124;28;20311;-89
2023/02/11 07:49:18;;;;;;;22.00;18.27;;;;;;;19.73;39.32;99116.56;4919827;28;20240;-88
2023/02/11 07:51:46;;;;;;;19.90;17.77;;;;;;;19.93;39.10;99141.63;4921807;28;20287;-87
2023/02/11 07:54:12;;;;;;;18.07;15.90;;;;;;;20.05;39.05;99162.78;4935799;28;20230;-88
2023/02/11 07:56:39;;;;;;;17.43;15.63;;;;;;;20.22;39.55;99200.44;4911177;29;20598;-87
2023/02/11 07:59:06;;;;;;;17.47;14.43;;;;;;;20.04;39.31;99155.91;4921572;29;20681;-88
2023/02/11 08:01:32;;;;;;;20.07;15.03;;;;;;;19.95;39.86;99140.03;4942186;29;20291;-88
2023/02/11 08:03:59;;;;;;;22.60;14.40;;;;;;;20.14;39.88;99182.91;4932729;29;20590;-88
2023/02/11 08:06:28;;;;;;;16.53;13.87;;;;;;;20.17;39.89;99180.56;4913843;28;20241;-87
2023/02/11 08:08:54;;;;;;;17.90;13.27;;;;;;;19.93;40.11;99145.03;4921880;29;20288;-88
2023/02/11 08:11:25;;;;;;;14.87;13.27;;;;;;;20.23;40.07;99209.91;4913147;28;20209;-88
2023/02/11 08:13:52;;;;;;;18.20;12.80;;;;;;;20.32;40.19;99225.78;4909859;29;20209;-89
2023/02/11 08:16:23;;;;;;;16.80;12.90;;;;;;;20.33;40.17;99237.75;4925882;28;20347;-89
2023/02/11 08:18:49;;;;;;;16.50;13.00;;;;;;;20.10;40.24;99199.66;4938978;29;20291;-88
2023/02/11 08:21:16;;;;;;;15.17;13.10;;;;;;;20.25;40.14;99227.88;4909525;28;20304;-88
2023/02/11 08:23:43;;;;;;;15.40;12.97;;;;;;;20.14;40.57;99209.34;4913357;29;20205;-88
2023/02/11 08:26:14;;;;;;;15.87;11.70;;;;;;;20.19;40.79;99222.38;4927006;29;20307;-89
2023/02/11 08:28:42;;;;;;;14.23;11.53;;;;;;;20.37;40.88;99257.56;4918332;29;20637;-88
2023/02/11 08:31:19;;;;;;;16.63;12.77;;;;;;;20.06;40.74;99213.03;4937164;28;20216;-87
2023/02/11 08:33:46;;;;;;;15.20;11.17;;;;;;;20.05;40.98;99205.28;4931242;29;20670;-87
2023/02/11 08:36:14;;;;;;;14.37;10.87;;;;;;;19.77;40.81;99162.75;4915955;28;20236;-89
2023/02/11 08:38:41;;;;;;;12.50;9.97;;;;;;;20.21;40.80;99231.88;4945499;28;20209;-88
2023/02/11 08:41:07;;;;;;;14.43;10.53;;;;;;;20.23;40.62;99212.44;4915146;29;20212;-89
2023/02/11 08:43:34;;;;;;;17.20;10.80;;;;;;;20.10;40.80;99191.16;4912832;29;20486;-87
2023/02/11 08:46:01;;;;;;;13.83;10.43;;;;;;;20.23;40.92;99222.66;4953411;28;20276;-88
2023/02/11 08:48:28;;;;;;;14.23;10.63;;;;;;;19.76;41.04;99143.16;4915786;29;20275;-88
2023/02/11 08:50:55;;;;;;;14.17;9.83;;;;;;;20.19;40.97;99207.91;4945420;28;20204;-89
2023/02/11 08:53:22;;;;;;;16.30;10.20;;;;;;;20.35;40.77;99228.50;4954470;28;20287;-88
2023/02/11 08:55:49;;;;;;;12.67;9.87;;;;;;;20.27;41.04;99224.59;4906434;29;20280;-87
2023/02/11 08:58:16;;;;;;;14.57;9.67;;;;;;;20.16;41.25;99197.53;4930027;28;20210;-88
2023/02/11 09:00:45;;;;;;;12.00;10.03;;;;;;;19.39;41.18;99054.94;4916517;29;20209;-90
2023/02/11 09:03:12;;;;;;;13.33;9.30;;;;;;;19.82;41.26;99129.88;4951430;28;20208;-88
2023/02/11 09:05:42;;;;;;;13.47;9.93;;;;;;;20.02;41.29;99161.72;4917592;29;20201;-89
2023/02/11 09:08:09;;;;;;;12.33;9.30;;;;;;;20.07;41.35;99151.00;4941345;28;20295;-89
2023/02/11 09:10:36;;;;;;;13.97;8.80;;;;;;;20.09;41.49;99163.84;4949664;28;20208;-86
2023/02/11 09:13:03;;;;;;;13.33;9.50;;;;;;;20.22;41.46;99191.94;4909915;29;20205;-87
2023/02/11 09:15:30;;;;;;;9.63;8.63;;;;;;;20.18;41.43;99184.84;4932247;28;20232;-89
2023/02/11 09:17:56;;;;;;;11.97;9.30;;;;;;;20.10;41.49;99170.72;4949961;28;20644;-89
2023/02/11 09:20:23;;;;;;;11.47;9.27;;;;;;;20.41;41.57;99226.34;4918983;28;20629;-88
2023/02/11 09:22:50;;;;;;;11.27;8.90;;;;;;;20.31;41.75;99208.66;4935099;28;20209;-88
2023/02/11 09:25:16;;;;;;;10.83;8.23;;;;;;;20.34;41.30;99213.97;4937743;28;20213;-88
2023/02/11 09:27:43;;;;;;;12.70;8.70;;;;;;;20.28;41.66;99211.03;4926525;29;20230;-88
2023/02/11 09:30:10;;;;;;;11.30;8.07;;;;;;;20.12;41.84;99174.22;4922373;28;20232;-87
2023/02/11 09:32:36;;;;;;;10.90;8.67;;;;;;;19.98;41.80;99138.56;4901529;29;20236;-88
2023/02/11 09:35:03;;;;;;;13.13;8.90;;;;;;;20.13;41.60;99171.81;4936150;28;21520;-89
2023/02/11 09:37:30;;;;;;;11.33;8.77;;;;;;;20.22;41.59;99174.06;4937084;28;20317;-88
2023/02/11 09:39:56;;;;;;;10.00;7.57;;;;;;;20.18;41.78;99159.31;4909941;29;20232;-87
2023/02/11 09:42:42;;;;;;;14.30;8.97;;;;;;;19.92;41.84;99117.78;4920517;28;20304;-89
2023/02/11 09:45:17;;;;;;;13.77;8.37;;;;;;;20.14;41.94;99144.63;4927542;28;20201;-88
2023/02/11 09:48:14;;;;;;;11.00;8.10;;;;;;;20.45;41.81;99204.38;4905613;29;20224;-89
2023/02/11 09:50:54;;;;;;;11.13;7.83;;;;;;;20.14;41.90;99157.38;4934216;28;20601;-88
2023/02/11 09:53:25;;;;;;;12.90;8.30;;;;;;;20.23;42.06;99173.25;4904930;28;20215;-87
2023/02/11 09:55:54;;;;;;;14.37;7.80;;;;;;;20.42;42.15;99211.88;4923383;29;20252;-89
2023/02/11 09:58:29;;;;;;;10.30;8.00;;;;;;;20.22;42.04;99187.69;4937935;28;20253;-89
2023/02/11 10:01:20;;;;;;;11.03;8.00;;;;;;;19.78;42.21;99105.84;4920248;29;20214;-88
2023/02/11 10:03:53;;;;;;;12.40;8.30;;;;;;;20.43;42.07;99227.28;4933008;28;20201;-88
2023/02/11 10:06:46;;;;;;;11.60;7.93;;;;;;;20.06;42.30;99171.31;4940814;28;20292;-88
2023/02/11 10:09:40;;;;;;;12.00;7.93;;;;;;;20.43;42.21;99241.75;4930420;28;20208;-88
2023/02/11 10:12:19;;;;;;;14.77;7.87;;;;;;;20.42;42.39;99237.41;4950028;28;20208;-89
2023/02/11 10:14:59;;;;;;;9.33;7.23;;;;;;;20.43;42.45;99226.41;4929970;29;20228;-88
2023/02/11 10:17:32;;;;;;;13.90;8.70;;;;;;;20.42;42.52;99230.63;4938409;28;20315;-88
2023/02/11 10:20:17;;;;;;;13.57;7.43;;;;;;;20.42;42.36;99235.75;4940624;28;20212;-89
2023/02/11 10:22:48;;;;;;;10.80;7.97;;;;;;;20.18;42.58;99188.31;4945195;28;20204;-88
2023/02/11 10:25:21;;;;;;;13.03;7.47;;;;;;;20.42;42.44;99230.63;4919132;28;20686;-89
2023/02/11 10:27:47;;;;;;;10.80;7.37;;;;;;;20.15;42.37;99177.00;4941111;28;20225;-91
2023/02/11 10:30:18;;;;;;;9.93;7.53;;;;;;;20.44;42.69;99223.06;4934924;28;20394;-90
2023/02/11 10:32:56;;;;;;;10.13;7.23;;;;;;;19.86;42.87;99126.72;4949751;28;20204;-90
2023/02/11 10:35:23;;;;;;;11.70;7.33;;;;;;;20.10;42.81;99176.69;4926236;28;20335;-89
2023/02/11 10:37:50;;;;;;;11.70;7.57;;;;;;;19.79;42.63;99111.84;4957238;28;20243;-88
2023/02/11 10:40:21;;;;;;;12.17;7.50;;;;;;;20.02;42.48;99152.41;4931077;28;20212;-90
2023/02/11 10:42:50;;;;;;;12.00;6.97;;;;;;;19.07;42.67;98985.75;4924224;29;20204;-90
2023/02/11 10:45:32;;;;;;;11.37;7.47;;;;;;;20.46;42.85;99226.59;4917112;28;20204;-90
2023/02/11 10:48:03;;;;;;;9.57;7.03;;;;;;;20.19;42.65;99179.84;4955044;28;20230;-90
2023/02/11 10:50:33;;;;;;;9.93;7.17;;;;;;;20.12;42.82;99164.91;4917595;28;20208;-89
2023/02/11 10:53:20;;;;;;;12.07;7.37;;;;;;;19.72;42.66;99094.41;4926455;29;20213;-90
2023/02/11 10:55:53;;;;;;;10.20;7.03;;;;;;;20.14;43.20;99171.03;4932320;29;22598;-92
2023/02/11 10:58:27;;;;;;;9.53;7.20;;;;;;;20.23;42.88;99181.81;4918106;28;20221;-89
2023/02/11 11:00:55;;;;;;;10.83;6.70;;;;;;;20.07;42.89;99151.00;4927650;29;20624;-90
2023/02/11 11:03:23;;;;;;;8.33;6.43;;;;;;;19.89;42.78;99112.47;4926403;28;21099;-89
2023/02/11 11:05:51;;;;;;;10.87;6.67;;;;;;;20.46;42.83;99214.69;4921001;29;20197;-91
2023/02/11 11:08:17;;;;;;;10.30;7.03;;;;;;;19.91;42.63;99110.03;4914734;28;20287;-89
2023/02/11 11:10:46;;;;;;;9.90;6.97;;;;;;;20.21;42.98;99156.97;4921476;28;20208;-88
2023/02/11 11:13:51;;;;;;;9.20;6.40;;;;;;;20.46;42.88;99199.38;4921947;29;20208;-89
2023/02/11 11:16:20;;;;;;;9.20;6.60;;;;;;;20.28;42.87;99164.22;4892936;29;20374;-89
2023/02/11 11:18:49;;;;;;;9.70;6.00;;;;;;;20.25;43.01;99172.56;4912906;29;20654;-91
2023/02/11 11:21:42;;;;;;;11.03;6.70;;;;;;;20.46;43.05;99193.41;4936814;28;20212;-90
2023/02/11 11:24:14;;;;;;;9.13;6.50;;;;;;;20.04;42.98;99116.75;4947483;28;20682;-88
2023/02/11 11:26:43;;;;;;;7.90;6.33;;;;;;;20.33;43.12;99191.78;4947270;28;20260;-88
2023/02/11 11:29:15;;;;;;;10.93;6.40;;;;;;;19.80;43.55;99076.22;4920676;29;20272;-89
2023/02/11 11:31:55;;;;;;;12.30;6.27;;;;;;;20.24;43.29;99141.81;4926476;29;20213;-89
2023/02/11 11:34:27;;;;;;;10.53;6.20;;;;;;;20.47;43.11;99180.72;4926371;29;20223;-92
2023/02/11 11:36:55;;;;;;;10.63;6.07;;;;;;;19.70;42.98;99050.06;4934468;29;20220;-89
2023/02/11 11:39:24;;;;;;;13.63;5.70;;;;;;;19.73;43.04;99051.13;4924409;29;20213;-91
2023/02/11 11:41:54;;;;;;;12.63;6.70;;;;;;;19.98;43.19;99095.19;4913476;29;20280;-90